Time;durP1;ratioP1;P1;durP2;ratioP2;P2;SDS_P1;SDS_P2;PMS_P1;PMS_P2;Temp;Humidity;BMP_temperature;BMP_pressure;BME280_temperature;BME280_humidity;BME280_pressure;Samples;Min_cycle;Max_cycle;Signal;HPM_P1;HPM_P2
2021/01/17 06:16:49;;;;;;;1999.90;999.90;;;-0.20;99.90;;;;;;5286334;23;20285;-79
2021/01/17 06:19:17;;;;;;;1999.90;999.90;;;-0.30;99.90;;;;;;4899957;29;20246;-81
2021/01/17 06:21:48;;;;;;;1999.90;999.90;;;-0.50;99.90;;;;;;4900008;29;20203;-82
2021/01/17 06:24:16;;;;;;;1999.90;999.90;;;-0.40;99.90;;;;;;4900367;29;20212;-79
2021/01/17 06:26:45;;;;;;;1999.90;999.90;;;-0.60;99.90;;;;;;4888575;29;20227;-78
2021/01/17 06:29:12;;;;;;;1999.90;999.90;;;-0.70;99.90;;;;;;4879931;29;20208;-78
2021/01/17 06:31:40;;;;;;;1999.90;999.90;;;-0.80;99.90;;;;;;4879491;29;20569;-80
2021/01/17 06:34:10;;;;;;;1999.90;999.90;;;-0.90;99.90;;;;;;4879291;29;20208;-80
2021/01/17 06:36:38;;;;;;;1999.90;999.90;;;-0.80;99.90;;;;;;4879478;29;20223;-79
2021/01/17 06:39:18;;;;;;;1999.90;999.90;;;-0.70;99.90;;;;;;4879318;29;20268;-81
2021/01/17 06:41:45;;;;;;;1999.90;999.90;;;-0.70;99.90;;;;;;4879753;29;20666;-80
2021/01/17 06:44:13;;;;;;;1999.90;999.90;;;-0.50;99.90;;;;;;4879437;29;20207;-80
2021/01/17 06:46:42;;;;;;;1999.90;999.90;;;-0.60;99.90;;;;;;4879606;29;20780;-82
2021/01/17 06:49:18;;;;;;;1999.90;999.90;;;-0.70;99.90;;;;;;4880386;29;20591;-81
2021/01/17 06:51:46;;;;;;;1999.90;999.90;;;-0.90;99.90;;;;;;4880449;29;20228;-79
2021/01/17 06:54:15;;;;;;;1999.90;999.90;;;-1.00;99.90;;;;;;4878891;29;20208;-79
2021/01/17 06:56:44;;;;;;;1999.90;999.90;;;-1.20;99.90;;;;;;4879720;29;20224;-79
2021/01/17 06:59:11;;;;;;;1999.90;999.90;;;-1.10;99.90;;;;;;4879228;29;20211;-79
2021/01/17 07:01:43;;;;;;;1999.90;999.90;;;-0.90;99.90;;;;;;4880447;29;20208;-80
2021/01/17 07:04:40;;;;;;;1999.90;999.90;;;-0.80;99.90;;;;;;4881804;29;20589;-80
2021/01/17 07:07:49;;;;;;;1999.90;999.90;;;-0.60;99.90;;;;;;4864876;29;20649;-80
2021/01/17 07:10:20;;;;;;;1999.90;999.90;;;-0.60;99.90;;;;;;4864341;29;20209;-81
2021/01/17 07:12:58;;;;;;;1999.90;999.90;;;-0.60;99.90;;;;;;4863786;29;20228;-78
2021/01/17 07:15:26;;;;;;;1999.90;999.90;;;-0.60;99.90;;;;;;4863954;29;20209;-79
2021/01/17 07:18:01;;;;;;;1999.90;999.90;;;-0.50;99.90;;;;;;4863524;29;20265;-81
2021/01/17 07:20:31;;;;;;;1999.90;999.90;;;-0.40;99.90;;;;;;4863900;29;20219;-79
2021/01/17 07:23:00;;;;;;;1999.90;999.90;;;-0.60;99.90;;;;;;4864615;29;20194;-81
2021/01/17 07:25:29;;;;;;;1999.90;999.90;;;-0.60;99.90;;;;;;4864548;29;20216;-79
2021/01/17 07:28:07;;;;;;;1999.90;999.90;;;-0.70;99.90;;;;;;4864063;29;20218;-80
2021/01/17 07:30:45;;;;;;;1999.90;999.90;;;-0.70;99.90;;;;;;4863864;29;20213;-81
2021/01/17 07:33:13;;;;;;;1999.90;999.90;;;-0.50;99.90;;;;;;4864856;29;20221;-80
2021/01/17 07:35:43;;;;;;;1999.90;999.90;;;-0.20;99.90;;;;;;4864489;29;20228;-82
2021/01/17 07:38:15;;;;;;;1999.90;999.90;;;0.00;99.90;;;;;;4864744;29;20204;-80
2021/01/17 07:40:52;;;;;;;1999.90;999.90;;;0.00;99.90;;;;;;4865524;29;20193;-80
2021/01/17 07:43:25;;;;;;;1999.90;999.90;;;0.10;99.90;;;;;;4866869;29;20550;-81
2021/01/17 07:45:53;;;;;;;1999.90;999.90;;;0.20;99.90;;;;;;4865932;29;20726;-82
2021/01/17 07:48:20;;;;;;;1999.90;999.90;;;0.40;99.90;;;;;;4866307;29;20209;-81
2021/01/17 07:50:50;;;;;;;1999.90;999.90;;;0.50;99.90;;;;;;4865840;29;20220;-79
2021/01/17 07:53:50;;;;;;;1999.90;999.90;;;0.60;99.90;;;;;;4877359;29;20227;-81
2021/01/17 07:56:25;;;;;;;1999.90;999.90;;;0.80;99.90;;;;;;4883412;29;20224;-80
2021/01/17 07:58:56;;;;;;;1999.90;999.90;;;0.80;99.90;;;;;;4885980;29;20278;-81
2021/01/17 08:01:47;;;;;;;1999.90;999.90;;;0.80;99.90;;;;;;4884475;29;20558;-81
2021/01/17 08:04:24;;;;;;;1999.90;999.90;;;0.80;99.90;;;;;;4884892;29;20228;-80
2021/01/17 08:06:55;;;;;;;1999.90;999.90;;;0.70;99.90;;;;;;4884924;29;20283;-80
2021/01/17 08:09:48;;;;;;;1999.90;999.90;;;0.70;99.90;;;;;;4885153;29;20212;-80
2021/01/17 08:12:38;;;;;;;1999.90;999.90;;;0.40;99.90;;;;;;4884207;29;20228;-80
2021/01/17 08:15:28;;;;;;;1999.90;999.90;;;0.10;99.90;;;;;;4883277;29;20212;-81
2021/01/17 08:17:56;;;;;;;1999.90;999.90;;;-0.10;99.90;;;;;;4882833;29;20211;-81
2021/01/17 08:20:27;;;;;;;1999.90;999.90;;;-0.20;99.90;;;;;;4881685;29;20216;-80
2021/01/17 08:23:08;;;;;;;1999.90;999.90;;;-0.20;99.90;;;;;;4882302;29;20660;-81
2021/01/17 08:25:59;;;;;;;1999.90;999.90;;;-0.10;99.90;;;;;;4881832;29;20228;-80
2021/01/17 08:28:36;;;;;;;1999.90;999.90;;;0.00;99.90;;;;;;4882879;29;20563;-80
2021/01/17 08:31:40;;;;;;;1999.90;999.90;;;0.20;99.90;;;;;;4883064;29;20204;-80
2021/01/17 08:34:09;;;;;;;1999.90;999.90;;;0.10;99.90;;;;;;4881325;29;20256;-78
2021/01/17 08:36:36;;;;;;;1999.90;999.90;;;0.10;99.90;;;;;;4883167;29;20575;-79
2021/01/17 08:39:04;;;;;;;1999.90;999.90;;;0.20;99.90;;;;;;4873686;29;20327;-76
2021/01/17 08:41:31;;;;;;;1999.90;999.90;;;0.10;99.90;;;;;;4885859;29;20244;-77
2021/01/17 08:43:58;;;;;;;1999.90;999.90;;;0.20;99.90;;;;;;4887844;29;20208;-77
2021/01/17 08:46:36;;;;;;;1999.90;999.90;;;0.20;99.90;;;;;;4890170;29;20635;-77
2021/01/17 08:49:05;;;;;;;1999.90;999.90;;;0.10;99.90;;;;;;4896905;29;20216;-79
2021/01/17 08:51:32;;;;;;;1999.90;999.90;;;0.00;99.90;;;;;;4896989;29;20235;-78
2021/01/17 08:54:25;;;;;;;1999.90;999.90;;;0.00;99.90;;;;;;4892037;29;20208;-80
2021/01/17 08:56:53;;;;;;;1999.90;999.90;;;0.20;99.90;;;;;;4893001;29;20279;-79
2021/01/17 08:59:37;;;;;;;1999.90;999.90;;;0.20;99.90;;;;;;4896001;29;20208;-78
2021/01/17 09:02:05;;;;;;;1999.90;999.90;;;0.20;99.90;;;;;;4893657;29;20210;-78
2021/01/17 09:04:33;;;;;;;1999.90;999.90;;;0.30;99.90;;;;;;4897809;29;20216;-79
2021/01/17 09:07:01;;;;;;;1999.90;999.90;;;0.60;99.90;;;;;;4885071;29;20228;-78
2021/01/17 09:09:29;;;;;;;1999.90;999.90;;;0.70;99.90;;;;;;4879646;29;20260;-79
2021/01/17 09:12:10;;;;;;;1999.90;999.90;;;0.60;99.90;;;;;;4879902;29;20227;-78
2021/01/17 09:14:37;;;;;;;1999.90;999.90;;;0.70;99.90;;;;;;4878726;29;20219;-77
2021/01/17 09:17:10;;;;;;;1999.90;999.90;;;0.80;99.90;;;;;;4880114;29;20236;-78
2021/01/17 09:19:38;;;;;;;1999.90;999.90;;;1.00;99.90;;;;;;4880271;29;20201;-79
2021/01/17 09:22:07;;;;;;;1999.90;999.90;;;1.00;99.90;;;;;;4879928;29;20631;-78
2021/01/17 09:24:36;;;;;;;1999.90;999.90;;;1.00;99.90;;;;;;4880110;29;20212;-79
2021/01/17 09:27:07;;;;;;;1999.90;999.90;;;1.00;99.90;;;;;;4879625;29;20753;-79
2021/01/17 09:29:36;;;;;;;1999.90;999.90;;;1.10;99.90;;;;;;4879081;29;20300;-79
2021/01/17 09:32:07;;;;;;;1999.90;999.90;;;1.20;99.90;;;;;;4879033;29;20232;-79
2021/01/17 09:34:35;;;;;;;1999.90;999.90;;;1.30;99.90;;;;;;4878922;29;20216;-80
2021/01/17 09:37:07;;;;;;;1999.90;999.90;;;1.30;99.90;;;;;;4879251;29;20287;-80
2021/01/17 09:39:40;;;;;;;1999.90;999.90;;;1.50;99.90;;;;;;4879033;29;20208;-80
2021/01/17 09:42:09;;;;;;;1999.90;999.90;;;1.50;99.90;;;;;;4872425;29;20204;-80
2021/01/17 09:44:37;;;;;;;1999.90;999.90;;;1.40;99.90;;;;;;4879433;29;20742;-80
2021/01/17 09:47:13;;;;;;;1999.90;999.90;;;1.50;99.90;;;;;;4878722;29;20235;-80
2021/01/17 09:49:40;;;;;;;1999.90;999.90;;;1.70;99.90;;;;;;4879023;29;20199;-80
2021/01/17 09:52:11;;;;;;;1999.90;999.90;;;1.90;99.90;;;;;;4879574;29;20327;-80
2021/01/17 09:54:39;;;;;;;1999.90;999.90;;;2.10;99.90;;;;;;4879939;29;20200;-79
2021/01/17 09:57:18;;;;;;;1999.90;999.90;;;2.20;99.90;;;;;;4879866;29;20250;-78
2021/01/17 09:59:45;;;;;;;1999.90;999.90;;;2.20;99.90;;;;;;4879293;29;20219;-77
2021/01/17 10:02:12;;;;;;;1999.90;999.90;;;2.00;99.90;;;;;;4879801;29;20211;-78
2021/01/17 10:04:40;;;;;;;1999.90;999.90;;;1.90;99.90;;;;;;4879138;29;20256;-77
2021/01/17 10:07:17;;;;;;;1999.90;999.90;;;2.00;99.90;;;;;;4878838;29;20224;-76
2021/01/17 10:09:45;;;;;;;1999.90;999.90;;;2.20;99.90;;;;;;4878360;29;20233;-77
2021/01/17 10:12:12;;;;;;;1999.90;999.90;;;2.20;99.70;;;;;;4878421;29;20800;-75
2021/01/17 10:14:40;;;;;;;1999.90;999.90;;;2.00;99.90;;;;;;4878877;29;20685;-78
2021/01/17 10:17:07;;;;;;;1999.90;999.90;;;2.00;99.90;;;;;;4880047;29;20326;-77
2021/01/17 10:19:37;;;;;;;1999.90;999.90;;;2.20;99.90;;;;;;4879900;29;20198;-77
2021/01/17 10:22:09;;;;;;;1999.90;999.90;;;2.40;99.20;;;;;;4876987;29;20211;-77
2021/01/17 10:24:36;;;;;;;1999.90;999.90;;;2.40;99.00;;;;;;4876746;29;20208;-77
2021/01/17 10:27:06;;;;;;;1999.90;999.90;;;2.50;98.60;;;;;;4877616;29;20247;-77
2021/01/17 10:29:35;;;;;;;1999.90;999.90;;;2.40;98.30;;;;;;4871771;29;20303;-77
2021/01/17 10:32:06;;;;;;;1999.90;999.90;;;2.40;98.70;;;;;;4878378;29;20259;-77
2021/01/17 10:34:35;;;;;;;1999.90;999.90;;;2.50;98.20;;;;;;4878362;29;20347;-76
2021/01/17 10:37:05;;;;;;;1999.90;999.90;;;2.60;98.20;;;;;;4876948;29;20316;-77
2021/01/17 10:39:36;;;;;;;1999.90;999.90;;;2.50;97.80;;;;;;4878002;29;20248;-77
2021/01/17 10:42:07;;;;;;;1999.90;999.90;;;2.60;98.10;;;;;;4878982;29;20291;-79
2021/01/17 10:44:41;;;;;;;1999.90;999.90;;;2.30;98.10;;;;;;4877151;29;20249;-77
2021/01/17 10:47:14;;;;;;;1999.90;999.90;;;2.50;98.30;;;;;;4877897;29;20254;-77
2021/01/17 10:49:46;;;;;;;1999.90;999.90;;;2.60;97.70;;;;;;4878226;29;20633;-77
2021/01/17 10:52:21;;;;;;;1999.90;999.90;;;2.80;98.60;;;;;;4877709;29;20765;-76
2021/01/17 10:54:49;;;;;;;1999.90;999.90;;;3.00;97.90;;;;;;4878167;29;20613;-76
2021/01/17 10:57:18;;;;;;;1999.90;999.90;;;3.10;97.30;;;;;;4877653;29;20280;-78
2021/01/17 10:59:45;;;;;;;1999.90;999.90;;;2.70;97.30;;;;;;4877551;29;20208;-79
2021/01/17 11:02:24;;;;;;;1999.90;999.90;;;2.90;97.90;;;;;;4877588;29;20241;-78
2021/01/17 11:04:52;;;;;;;1999.90;999.90;;;3.00;97.40;;;;;;4871801;29;20216;-76
2021/01/17 11:07:26;;;;;;;1999.90;999.90;;;3.00;96.90;;;;;;4877716;29;20235;-77
2021/01/17 11:09:53;;;;;;;1999.90;999.90;;;3.10;96.60;;;;;;4877655;29;20212;-78
2021/01/17 11:12:37;;;;;;;1999.90;999.90;;;2.70;96.60;;;;;;4877679;29;20224;-76
2021/01/17 11:15:13;;;;;;;1999.90;999.90;;;3.20;96.80;;;;;;4877639;29;20696;-77
2021/01/17 11:17:53;;;;;;;1999.90;999.90;;;2.40;96.50;;;;;;4877560;29;20291;-77
2021/01/17 11:20:27;;;;;;;1999.90;999.90;;;2.50;96.20;;;;;;4877629;29;20207;-77
2021/01/17 11:23:00;;;;;;;1999.90;999.90;;;2.30;96.60;;;;;;4877694;29;20207;-77
2021/01/17 11:25:27;;;;;;;1999.90;999.90;;;2.40;95.80;;;;;;4878064;29;20210;-78
2021/01/17 11:28:00;;;;;;;1999.90;999.90;;;2.20;96.20;;;;;;4877601;29;20204;-78
2021/01/17 11:30:28;;;;;;;1999.90;999.90;;;2.10;96.50;;;;;;4869505;29;20204;-79
2021/01/17 11:33:07;;;;;;;1999.90;999.90;;;2.30;96.40;;;;;;4874152;29;20224;-79
2021/01/17 11:35:34;;;;;;;1999.90;999.90;;;2.20;96.50;;;;;;4878573;29;20283;-80
2021/01/17 11:38:01;;;;;;;1999.90;999.90;;;2.30;96.90;;;;;;4879404;29;20212;-80
2021/01/17 11:40:28;;;;;;;1999.90;999.90;;;2.30;95.70;;;;;;4880319;29;20212;-80
2021/01/17 11:43:05;;;;;;;1999.90;999.90;;;2.10;96.20;;;;;;4880729;29;20210;-80
2021/01/17 11:45:32;;;;;;;1999.90;999.90;;;2.10;96.40;;;;;;4880180;29;20226;-76
2021/01/17 11:48:00;;;;;;;1999.90;999.90;;;2.20;95.50;;;;;;4878582;29;20218;-79
2021/01/17 11:50:27;;;;;;;1999.90;999.90;;;2.30;95.10;;;;;;4883001;29;20208;-78
2021/01/17 11:52:58;;;;;;;1999.90;999.90;;;2.40;96.20;;;;;;4882562;29;20268;-81
2021/01/17 11:55:25;;;;;;;1999.90;999.90;;;2.40;94.90;;;;;;4880324;29;20212;-80
2021/01/17 11:58:10;;;;;;;1999.90;999.90;;;2.30;94.10;;;;;;4881737;29;20276;-77
2021/01/17 12:00:48;;;;;;;1999.90;999.90;;;2.20;94.70;;;;;;4879994;29;20657;-75
2021/01/17 12:03:31;;;;;;;1999.90;999.90;;;2.10;95.00;;;;;;4879520;29;20275;-76
2021/01/17 12:06:04;;;;;;;1999.90;999.90;;;2.20;94.70;;;;;;4877710;29;20228;-77
2021/01/17 12:08:57;;;;;;;1999.90;999.90;;;2.20;95.10;;;;;;4881929;29;20204;-77
2021/01/17 12:11:44;;;;;;;1999.90;999.90;;;2.20;94.40;;;;;;4880329;29;20260;-77
2021/01/17 12:14:13;;;;;;;1999.90;999.90;;;2.30;94.90;;;;;;4882765;29;20609;-78
2021/01/17 12:16:42;;;;;;;1999.90;999.90;;;2.40;94.10;;;;;;4882313;29;20236;-77
2021/01/17 12:19:12;;;;;;;1999.90;999.90;;;2.20;94.40;;;;;;4881974;29;20629;-77
2021/01/17 12:21:38;;;;;;;1999.90;999.90;;;2.20;94.60;;;;;;4881504;29;20291;-77
2021/01/17 12:24:09;;;;;;;1999.90;999.90;;;2.30;94.80;;;;;;4880963;29;20204;-76
2021/01/17 12:26:36;;;;;;;1999.90;999.90;;;2.40;95.60;;;;;;4880572;29;20220;-76
2021/01/17 12:29:04;;;;;;;1999.90;999.90;;;2.50;94.30;;;;;;4895448;23;20211;-71
2021/01/17 12:31:32;;;;;;;1999.90;999.90;;;2.60;94.40;;;;;;4874399;29;20212;-72
2021/01/17 12:34:00;;;;;;;1999.90;999.90;;;2.40;94.20;;;;;;4878877;29;20316;-72
2021/01/17 12:36:29;;;;;;;1999.90;999.90;;;2.50;94.50;;;;;;4879232;29;20606;-72
2021/01/17 12:38:57;;;;;;;1999.90;999.90;;;2.60;94.70;;;;;;4878927;29;20695;-71
2021/01/17 12:41:26;;;;;;;1999.90;999.90;;;2.80;94.80;;;;;;4877633;29;20562;-72
2021/01/17 12:43:53;;;;;;;1999.90;999.90;;;2.70;94.40;;;;;;4876940;29;20271;-72
2021/01/17 12:46:20;;;;;;;1999.90;999.90;;;2.80;94.90;;;;;;4878893;29;20204;-72
2021/01/17 12:48:49;;;;;;;1999.90;999.90;;;2.60;94.80;;;;;;4878707;29;20200;-72
2021/01/17 12:51:17;;;;;;;1999.90;999.90;;;2.40;94.80;;;;;;4877496;29;20231;-72
2021/01/17 12:53:44;;;;;;;1999.90;999.90;;;2.30;94.90;;;;;;4879168;29;20236;-72
2021/01/17 12:59:32;;;;;;;1999.90;999.90;;;2.30;95.00;;;;;;4876779;29;20281;-73
2021/01/17 13:02:03;;;;;;;1999.90;999.90;;;2.30;95.10;;;;;;4880043;29;20196;-73
2021/01/17 13:04:32;;;;;;;1999.90;999.90;;;2.30;94.70;;;;;;4879711;29;20250;-73
2021/01/17 13:07:03;;;;;;;1999.90;999.90;;;2.30;94.90;;;;;;4878837;29;20211;-73
2021/01/17 13:09:30;;;;;;;1999.90;999.90;;;2.20;94.90;;;;;;4878814;29;20284;-73
2021/01/17 13:12:03;;;;;;;1999.90;999.90;;;1.90;95.10;;;;;;4877813;29;20208;-72
2021/01/17 13:14:30;;;;;;;1999.90;999.90;;;1.90;95.70;;;;;;4877527;29;20216;-70
2021/01/17 13:16:57;;;;;;;1999.90;999.90;;;1.90;95.60;;;;;;4879006;29;20212;-73
2021/01/17 13:19:24;;;;;;;1999.90;999.90;;;2.00;95.80;;;;;;4877770;29;20744;-74
2021/01/17 13:21:52;;;;;;;1999.90;999.90;;;2.20;95.40;;;;;;4878356;29;20207;-72
2021/01/17 13:24:19;;;;;;;1999.90;999.90;;;2.20;94.50;;;;;;4878717;29;20248;-73
2021/01/17 13:26:52;;;;;;;1999.90;999.90;;;1.90;94.60;;;;;;4878585;29;20208;-74
2021/01/17 13:29:19;;;;;;;1999.90;999.90;;;2.00;95.50;;;;;;4878133;29;20661;-72
2021/01/17 13:31:46;;;;;;;1999.90;999.90;;;2.00;95.20;;;;;;4878615;29;20219;-73
2021/01/17 13:34:13;;;;;;;1999.90;999.90;;;2.10;94.80;;;;;;4877033;29;20235;-73
2021/01/17 13:36:40;;;;;;;1999.90;999.90;;;2.20;95.50;;;;;;4877952;29;20648;-73
2021/01/17 13:39:07;;;;;;;1999.90;999.90;;;2.20;95.00;;;;;;4877528;29;20236;-72
2021/01/17 13:41:34;;;;;;;1999.90;999.90;;;2.20;95.40;;;;;;4878630;29;20207;-72
2021/01/17 13:44:01;;;;;;;1999.90;999.90;;;2.30;95.10;;;;;;4878505;29;20204;-72
2021/01/17 13:46:28;;;;;;;1999.90;999.90;;;2.00;94.10;;;;;;4878317;29;20211;-72
2021/01/17 13:48:55;;;;;;;1999.90;999.90;;;2.00;94.30;;;;;;4877912;29;20696;-72
2021/01/17 13:51:23;;;;;;;1999.90;999.90;;;1.90;95.00;;;;;;4878370;29;20216;-72
2021/01/17 13:53:50;;;;;;;1999.90;999.90;;;2.00;95.00;;;;;;4878322;29;20235;-72
2021/01/17 13:56:18;;;;;;;1999.90;999.90;;;2.20;95.40;;;;;;4878290;29;20212;-72
2021/01/17 13:58:45;;;;;;;1999.90;999.90;;;2.30;94.30;;;;;;4877875;29;20279;-72
2021/01/17 14:01:11;;;;;;;1999.90;999.90;;;2.20;94.10;;;;;;4878021;29;20591;-72
2021/01/17 14:03:39;;;;;;;1999.90;999.90;;;2.40;94.10;;;;;;4878153;29;20204;-72
2021/01/17 14:06:06;;;;;;;1999.90;999.90;;;2.20;94.40;;;;;;4878232;29;20222;-72
2021/01/17 14:08:32;;;;;;;1999.90;999.90;;;2.50;94.60;;;;;;4877891;29;20307;-72
2021/01/17 14:11:00;;;;;;;1999.90;999.90;;;2.50;94.60;;;;;;4877884;29;20757;-72
2021/01/17 14:13:27;;;;;;;1999.90;999.90;;;2.40;94.60;;;;;;4877111;29;20228;-72
2021/01/17 14:15:54;;;;;;;1999.90;999.90;;;2.50;94.10;;;;;;4878017;29;20256;-72
2021/01/17 14:18:21;;;;;;;1999.90;999.90;;;2.50;94.30;;;;;;4870218;29;20643;-72
2021/01/17 14:20:48;;;;;;;1999.90;999.90;;;2.30;95.10;;;;;;4878036;29;20228;-72
2021/01/17 14:23:15;;;;;;;1999.90;999.90;;;2.20;95.50;;;;;;4877823;29;20211;-72
2021/01/17 14:25:42;;;;;;;1999.90;999.90;;;2.20;95.10;;;;;;4877868;29;20638;-72
2021/01/17 14:28:09;;;;;;;1999.90;999.90;;;2.10;95.80;;;;;;4877605;29;20212;-73
2021/01/17 14:30:37;;;;;;;1999.90;999.90;;;2.30;95.30;;;;;;4877319;29;20791;-72
2021/01/17 14:33:04;;;;;;;1999.90;999.90;;;2.50;95.20;;;;;;4877872;29;20228;-72
2021/01/17 14:35:31;;;;;;;1999.90;999.90;;;2.20;94.60;;;;;;4877610;29;20223;-72
2021/01/17 14:37:58;;;;;;;1999.90;999.90;;;2.20;95.10;;;;;;4877590;29;20280;-72
2021/01/17 14:40:25;;;;;;;1999.90;999.90;;;2.30;94.80;;;;;;4877603;29;20654;-72
2021/01/17 14:42:52;;;;;;;1999.90;999.90;;;2.30;95.10;;;;;;4877457;29;20749;-72
2021/01/17 14:45:21;;;;;;;1999.90;999.90;;;2.30;94.60;;;;;;4877487;29;20243;-72
2021/01/17 14:47:52;;;;;;;1999.90;999.90;;;2.30;95.00;;;;;;4877365;29;20212;-72
2021/01/17 14:50:18;;;;;;;1999.90;999.90;;;2.30;95.40;;;;;;4877594;29;20251;-72
2021/01/17 14:52:46;;;;;;;1999.90;999.90;;;2.30;95.60;;;;;;4873204;29;20311;-71
2021/01/17 14:55:14;;;;;;;1999.90;999.90;;;2.30;95.10;;;;;;4873890;29;20208;-71
2021/01/17 14:57:48;;;;;;;1999.90;999.90;;;2.30;95.00;;;;;;4873499;29;20208;-71
2021/01/17 15:00:16;;;;;;;1999.90;999.90;;;2.40;95.50;;;;;;4874658;29;20227;-71
2021/01/17 15:02:43;;;;;;;1999.90;999.90;;;2.40;95.20;;;;;;4875756;29;20662;-70
2021/01/17 15:05:11;;;;;;;1999.90;999.90;;;2.40;95.50;;;;;;4875023;29;20204;-70
2021/01/17 15:07:38;;;;;;;1999.90;999.90;;;2.40;95.00;;;;;;4874623;29;20272;-71
2021/01/17 15:10:07;;;;;;;1999.90;999.90;;;2.40;95.30;;;;;;4875003;29;20224;-71
2021/01/17 15:12:34;;;;;;;1999.90;999.90;;;2.50;95.50;;;;;;4877129;29;20215;-72
2021/01/17 15:15:01;;;;;;;1999.90;999.90;;;2.50;95.70;;;;;;4877579;29;20265;-72
2021/01/17 15:17:27;;;;;;;1999.90;999.90;;;2.50;96.30;;;;;;4877262;29;20826;-72
2021/01/17 15:19:54;;;;;;;1999.90;999.90;;;2.40;96.30;;;;;;4876874;29;20231;-70
2021/01/17 15:22:22;;;;;;;1999.90;999.90;;;2.20;97.20;;;;;;4877194;29;20260;-70
2021/01/17 15:24:50;;;;;;;1999.90;999.90;;;2.00;97.50;;;;;;4879797;29;20204;-70
2021/01/17 15:27:17;;;;;;;1999.90;999.90;;;1.90;98.40;;;;;;4880832;29;20216;-70
2021/01/17 15:29:44;;;;;;;1999.90;999.90;;;1.90;98.80;;;;;;4880212;29;20227;-71
2021/01/17 15:32:11;;;;;;;1999.90;999.90;;;1.80;98.80;;;;;;4880953;29;20215;-72
2021/01/17 15:34:38;;;;;;;1999.90;999.90;;;1.70;99.10;;;;;;4880610;29;20310;-74
2021/01/17 15:37:06;;;;;;;1999.90;999.90;;;1.70;99.40;;;;;;4879801;29;20257;-73
2021/01/17 15:39:33;;;;;;;1999.90;999.90;;;1.60;99.40;;;;;;4880270;29;20228;-73
2021/01/17 15:42:04;;;;;;;1999.90;999.90;;;1.50;99.90;;;;;;4880755;29;20208;-74
2021/01/17 15:44:31;;;;;;;1999.90;999.90;;;1.40;99.90;;;;;;4878650;29;20692;-74
2021/01/17 15:46:59;;;;;;;1999.90;999.90;;;1.40;99.90;;;;;;4880679;29;20203;-73
2021/01/17 15:49:26;;;;;;;1999.90;999.90;;;1.40;99.90;;;;;;4880377;29;20243;-73
2021/01/17 15:51:53;;;;;;;1999.90;999.90;;;1.20;99.90;;;;;;4880598;29;20260;-73
2021/01/17 15:54:20;;;;;;;1999.90;999.90;;;1.20;99.90;;;;;;4880459;29;20254;-75
2021/01/17 15:56:48;;;;;;;1999.90;999.90;;;1.10;99.90;;;;;;4880360;29;20208;-71
2021/01/17 15:59:14;;;;;;;1999.90;999.90;;;1.10;99.90;;;;;;4878805;29;20223;-70
2021/01/17 16:01:45;;;;;;;1999.90;999.90;;;1.10;99.90;;;;;;4880445;29;20196;-72
2021/01/17 16:04:13;;;;;;;1999.90;999.90;;;1.00;99.90;;;;;;4880130;29;20675;-71
2021/01/17 16:06:40;;;;;;;1999.90;999.90;;;1.00;99.90;;;;;;4879645;29;20212;-72
2021/01/17 16:09:08;;;;;;;1999.90;999.90;;;0.80;99.90;;;;;;4879852;29;20310;-71
2021/01/17 16:11:35;;;;;;;1999.90;999.90;;;0.80;99.90;;;;;;4879893;29;20216;-70
2021/01/17 16:14:03;;;;;;;1999.90;999.90;;;1.20;99.90;;;;;;4880381;29;20220;-71
2021/01/17 16:16:34;;;;;;;1999.90;999.90;;;0.70;99.90;;;;;;4880673;29;20209;-72
2021/01/17 16:19:02;;;;;;;1999.90;999.90;;;0.70;99.90;;;;;;4882243;29;20634;-73
2021/01/17 16:21:29;;;;;;;1999.90;999.90;;;0.70;99.90;;;;;;4879859;29;20204;-74
2021/01/17 16:23:55;;;;;;;1999.90;999.90;;;0.70;99.90;;;;;;4879760;29;20196;-71
2021/01/17 16:26:22;;;;;;;1999.90;999.90;;;0.60;99.90;;;;;;4879996;29;20212;-72
2021/01/17 16:28:49;;;;;;;1999.90;999.90;;;0.60;99.90;;;;;;4879071;29;20200;-71
2021/01/17 16:31:17;;;;;;;1999.90;999.90;;;0.60;99.90;;;;;;4879577;29;20276;-72
2021/01/17 16:33:49;;;;;;;1999.90;999.90;;;0.50;99.90;;;;;;4879863;29;20228;-71
2021/01/17 16:36:19;;;;;;;1999.90;999.90;;;0.40;99.90;;;;;;4878696;29;20260;-70
2021/01/17 16:38:46;;;;;;;1999.90;999.90;;;0.40;99.90;;;;;;4879481;29;20400;-71
2021/01/17 16:41:15;;;;;;;1999.90;999.90;;;0.30;99.90;;;;;;4879571;29;20237;-71
2021/01/17 16:43:42;;;;;;;1999.90;999.90;;;0.30;99.90;;;;;;4879492;29;20204;-70
2021/01/17 16:46:31;;;;;;;1999.90;999.90;;;0.10;99.90;;;;;;4879040;29;20231;-72
2021/01/17 16:48:59;;;;;;;1999.90;999.90;;;0.20;99.90;;;;;;4879133;29;20233;-71
2021/01/17 16:51:37;;;;;;;1999.90;999.90;;;0.20;99.90;;;;;;4875775;29;20294;-71
2021/01/17 16:54:04;;;;;;;1999.90;999.90;;;0.20;99.90;;;;;;4872565;29;20592;-72
2021/01/17 16:56:31;;;;;;;1999.90;999.90;;;0.10;99.90;;;;;;4878734;29;20260;-71
2021/01/17 16:58:58;;;;;;;1999.90;999.90;;;-0.10;99.90;;;;;;4878825;29;20263;-71
2021/01/17 17:01:45;;;;;;;1999.90;999.90;;;-0.20;99.90;;;;;;4879402;29;20208;-72
2021/01/17 17:04:13;;;;;;;1999.90;999.90;;;-0.40;99.90;;;;;;4871522;29;20203;-72
2021/01/17 17:06:40;;;;;;;1999.90;999.90;;;-0.50;99.90;;;;;;4878865;29;20729;-71
2021/01/17 17:09:08;;;;;;;1999.90;999.90;;;-0.40;99.90;;;;;;4878629;29;20259;-72
2021/01/17 17:11:35;;;;;;;1999.90;999.90;;;-0.60;99.90;;;;;;4879034;29;20212;-71
2021/01/17 17:14:02;;;;;;;1999.90;999.90;;;-0.70;99.90;;;;;;4878955;29;20231;-75
2021/01/17 17:16:31;;;;;;;1999.90;999.90;;;-0.90;99.90;;;;;;4877620;29;20211;-74
2021/01/17 17:18:59;;;;;;;1999.90;999.90;;;-0.80;99.90;;;;;;4878651;29;20211;-75
2021/01/17 17:21:27;;;;;;;1999.90;999.90;;;-0.90;99.90;;;;;;4878814;29;20216;-76
2021/01/17 17:23:55;;;;;;;1999.90;999.90;;;-1.10;99.90;;;;;;4879499;29;20208;-75
2021/01/17 17:26:24;;;;;;;1999.90;999.90;;;-1.30;99.90;;;;;;4878998;29;20239;-74
2021/01/17 17:28:52;;;;;;;1999.90;999.90;;;-1.40;99.90;;;;;;4878663;29;20212;-72
2021/01/17 17:31:19;;;;;;;1999.90;999.90;;;-1.50;99.90;;;;;;4878617;29;20757;-71
2021/01/17 17:33:46;;;;;;;1999.90;999.90;;;-1.60;99.90;;;;;;4878349;29;20724;-72
2021/01/17 17:36:15;;;;;;;1999.90;999.90;;;-1.70;99.90;;;;;;4878305;29;20216;-72
2021/01/17 17:38:42;;;;;;;1999.90;999.90;;;-1.70;99.90;;;;;;4878183;29;20738;-72
2021/01/17 17:41:11;;;;;;;1999.90;999.90;;;-1.80;99.90;;;;;;4877331;29;20605;-72
2021/01/17 17:43:39;;;;;;;1999.90;999.90;;;-1.80;99.90;;;;;;4878979;29;20291;-73
2021/01/17 17:46:06;;;;;;;1999.90;999.90;;;-1.80;99.90;;;;;;4878251;29;20686;-71
2021/01/17 17:48:33;;;;;;;1999.90;999.90;;;-1.90;99.90;;;;;;4878434;29;20215;-72
2021/01/17 17:51:01;;;;;;;1999.90;999.90;;;-2.00;99.90;;;;;;4878700;29;20264;-73
2021/01/17 17:53:29;;;;;;;1999.90;999.90;;;-2.00;99.90;;;;;;4878685;29;20215;-72
2021/01/17 17:55:56;;;;;;;1999.90;999.90;;;-2.10;99.90;;;;;;4878795;29;20200;-72
2021/01/17 17:58:24;;;;;;;1999.90;999.90;;;-2.20;99.90;;;;;;4878311;29;20204;-72
2021/01/17 18:00:53;;;;;;;1999.90;999.90;;;-2.10;99.90;;;;;;4875983;29;20216;-72
2021/01/17 18:03:21;;;;;;;1999.90;999.90;;;-2.20;99.90;;;;;;4877513;29;20204;-72
2021/01/17 18:05:48;;;;;;;1999.90;999.90;;;-2.20;99.90;;;;;;4878454;29;20207;-72
2021/01/17 18:08:15;;;;;;;1999.90;999.90;;;-2.00;99.90;;;;;;4878628;29;20260;-72
2021/01/17 18:10:43;;;;;;;1999.90;999.90;;;-1.90;99.90;;;;;;4878561;29;20288;-73
2021/01/17 18:13:10;;;;;;;1999.90;999.90;;;-2.10;99.90;;;;;;4878369;29;20216;-73
2021/01/17 18:15:47;;;;;;;1999.90;999.90;;;-2.20;99.90;;;;;;4876638;29;20208;-73
2021/01/17 18:18:14;;;;;;;1999.90;999.90;;;-2.40;99.90;;;;;;4877336;29;20208;-73
2021/01/17 18:20:41;;;;;;;1999.90;999.90;;;-2.40;99.90;;;;;;4877526;29;20612;-73
2021/01/17 18:23:08;;;;;;;1999.90;999.90;;;-2.50;99.90;;;;;;4876726;29;20594;-72
2021/01/17 18:25:35;;;;;;;1999.90;999.90;;;-2.50;99.90;;;;;;4876594;29;20248;-73
2021/01/17 18:28:03;;;;;;;1999.90;999.90;;;-2.60;99.90;;;;;;4876103;29;20252;-71
2021/01/17 18:30:29;;;;;;;1999.90;999.90;;;-2.80;99.90;;;;;;4906107;23;20230;-77
2021/01/17 18:32:56;;;;;;;1999.90;999.90;;;-2.90;99.90;;;;;;4896373;29;20200;-77
2021/01/17 18:35:23;;;;;;;1999.90;999.90;;;-3.00;99.90;;;;;;4896386;29;20210;-77
2021/01/17 18:37:51;;;;;;;1999.90;999.90;;;-3.00;99.90;;;;;;4896129;29;20211;-77
2021/01/17 18:40:21;;;;;;;1999.90;999.90;;;-3.10;99.90;;;;;;4896395;29;20234;-76